Tropical Cyclones
[Index]
Main Index Home Page Stock Weather Photos Extreme Storms Discussion Storm News and Storm Chasing Reports Tropical Cyclones / Hurricanes / Typhoons Weather Data and Links Wild Fires / Bushfires Weather Observation Techniques Weather Picture Catalogue Tornado Pictures and Reports Stock Video Footage and DVDs for sale
Season 1983-1984 Tropical Cyclone OSCAR Track Map
Season 1983-1984 Summaries: [BoM-AU] [JTWC-AU] [JTWC-SIO] [JTWC-SPAC] [JTWC-SH]
<<- Previous TC | BoM 1983-1984 Season | Next TC ->>

click for intensity scale information  Lat/long Grid: Show Hide

 Date Labels: Show Hide

Bureau of Meteorology Tropical Cyclone Data

Name: OSCAR
Number: 643 / 198384_01

22 Oct 1983 00:00 UTC to 01 Nov 1983 00:00 UTC

    date/time    lat    long    hPa   cat  kts
1983-10-22 00    7.6    88.6   1002                     
1983-10-22 06    7.7    88.4   1002                     
1983-10-22 12    7.8    88.2   1002                     
1983-10-22 18    8.1    88.0   1002                     
1983-10-23 00    8.4    88.2   1000                     
1983-10-23 06    8.8    88.3   1000                     
1983-10-23 12    9.0    88.2   1002                     
1983-10-23 18    9.0    88.0   1001                     
1983-10-24 00    9.0    87.8    998                     
1983-10-24 03    9.0    87.6    998                     
1983-10-24 06    9.0    87.4    994    1                
1983-10-24 12    9.1    86.3    990    1                
1983-10-24 18    9.2    84.9    990    1                
1983-10-25 00    9.9    85.6    990    1                
1983-10-25 06   10.2    86.4    990    1                
1983-10-25 12   10.3    87.4    990    1                
1983-10-25 18   11.0    87.9    990    1                
1983-10-26 00   11.8    88.1    990    1                
1983-10-26 06   12.8    87.8    986    1                
1983-10-26 12   12.9    87.2    986    1                
1983-10-26 18   12.8    86.6    986    1                
1983-10-27 00   13.1    86.6    986    1                
1983-10-27 06   13.5    86.6    983    2                
1983-10-27 12   13.8    86.7    980    2                
1983-10-27 18   14.1    86.8    974    2                
1983-10-28 00   14.2    87.1    970    3                
1983-10-28 06   14.7    88.1    970    3                
1983-10-28 12   15.6    89.0    968    3                
1983-10-28 18   16.3    89.3    968    3                
1983-10-29 00   17.5    90.0    972    2                
1983-10-29 06   18.5    90.1    972    2                
1983-10-29 12   19.5    90.5    986    1                
1983-10-29 18   20.4    91.4    998                     
1983-10-30 00   21.3    91.4   1002                     
1983-10-30 06   23.3    92.7   1004                     
1983-10-30 09   23.3    94.0   1004                     
1983-10-30 12   24.3    95.2   1006                     
1983-10-30 18   26.3    96.1   1008                     
1983-10-31 00   27.3    96.4   1012                     
1983-10-31 06   28.1    97.1   1012                     
1983-10-31 12   29.8    97.7   1014                     
1983-10-31 18   29.4    98.4   1014                     
1983-11-01 00   29.6    99.0   1014                     
Winds are 10-min average.

Tropical cyclone tracks developed by Michael Bath using data from the Bureau of Meteorology and Google Maps.


[Australian Severe Weather index] [Copyright Notice] [Email Contacts] [Search This Site] [Privacy Policy]
Document: tropical_cyclone_oscar.htm Updated: 30 May 2013